Pelzer, Indiana
Current Conditions -  °F | °C
As of 2:54 PM on Tuesday 21 Oct 2014 (Local Time) from KEVV Reporting Station
Broken Clouds Broken Clouds  
Wind Chill: 63°   Ceiling: 4500
Heat Index: 63°   Visibility: 10mi
Dew Point: 44°   Wind: 12mph
Humidity: 50%   Direction: 360°N
Pressure: 30.09"   Gusts: 18mph
Location:  38.0544°N, 87.2562°W
Report Text: KEVV 211954Z 36010G16KT 10SM BKN045 17/07 A3009 RMK AO2 SLP189 T01720067
Loading
Personal Weather Stations






























Interactive Weather Map
Tropical Storm Tracking
New forecast layout! Learn more

10-Day Weather Forecast

Advertisements
Track Severe Weather on mobile